Time;durP1;ratioP1;P1;durP2;ratioP2;P2;SDS_P1;SDS_P2;PMS_P1;PMS_P2;Temp;Humidity;BMP_temperature;BMP_pressure;BME280_temperature;BME280_humidity;BME280_pressure;Samples;Min_cycle;Max_cycle;Signal;HPM_P1;HPM_P2
2021/10/12 00:02:12;;;;;;;16.93;6.33;;;10.10;99.90;;;;;;5016152;28;20222;-63
2021/10/12 00:04:39;;;;;;;20.70;7.10;;;10.10;99.90;;;;;;5015387;28;20211;-63
2021/10/12 00:07:06;;;;;;;18.13;6.97;;;10.10;99.90;;;;;;5015843;28;20205;-62
2021/10/12 00:09:33;;;;;;;14.10;6.30;;;10.10;99.90;;;;;;5015739;28;20226;-62
2021/10/12 00:12:01;;;;;;;16.40;6.33;;;10.00;99.90;;;;;;5015684;28;20277;-62
2021/10/12 00:14:27;;;;;;;17.37;7.10;;;10.10;99.90;;;;;;5015417;28;20264;-63
2021/10/12 00:16:54;;;;;;;13.27;6.73;;;10.00;99.90;;;;;;5015314;28;20611;-62
2021/10/12 00:19:21;;;;;;;16.47;7.00;;;10.00;99.90;;;;;;5015648;28;20230;-62
2021/10/12 00:21:47;;;;;;;14.37;6.70;;;10.10;99.90;;;;;;5015412;28;20207;-62
2021/10/12 00:24:14;;;;;;;14.53;7.17;;;10.10;99.90;;;;;;5015617;28;20253;-62
2021/10/12 00:26:41;;;;;;;17.53;7.60;;;10.10;99.90;;;;;;5015089;28;20219;-62
2021/10/12 00:29:08;;;;;;;21.93;7.90;;;10.10;99.90;;;;;;5015172;28;20213;-62
2021/10/12 00:31:36;;;;;;;21.93;7.20;;;10.10;99.90;;;;;;5015566;28;20241;-63
2021/10/12 00:34:03;;;;;;;17.17;7.13;;;10.10;99.90;;;;;;5015443;28;20207;-63
2021/10/12 00:36:29;;;;;;;16.23;7.57;;;10.10;99.90;;;;;;5015197;28;20210;-62
2021/10/12 00:38:56;;;;;;;15.70;7.03;;;10.10;99.90;;;;;;5014995;28;20203;-63
2021/10/12 00:41:23;;;;;;;15.07;7.17;;;10.10;99.90;;;;;;5015019;28;20313;-63
2021/10/12 00:43:50;;;;;;;17.73;7.50;;;10.10;99.90;;;;;;5014988;28;20206;-62
2021/10/12 00:46:18;;;;;;;14.23;6.67;;;10.10;99.90;;;;;;5015070;28;20207;-63
2021/10/12 00:48:44;;;;;;;12.37;6.47;;;10.10;99.90;;;;;;5015062;28;20261;-63
2021/10/12 00:51:12;;;;;;;13.73;7.13;;;10.10;99.90;;;;;;5014928;28;20227;-63
2021/10/12 00:53:39;;;;;;;18.80;6.50;;;10.10;99.90;;;;;;5014936;28;20210;-63
2021/10/12 00:56:06;;;;;;;16.87;7.40;;;10.10;99.90;;;;;;5014529;28;20211;-62
2021/10/12 00:58:32;;;;;;;16.07;6.70;;;10.10;99.90;;;;;;5015121;28;20226;-62
2021/10/12 01:00:59;;;;;;;14.20;6.00;;;10.10;99.90;;;;;;5014543;28;20816;-63
2021/10/12 01:03:27;;;;;;;12.87;6.37;;;10.10;99.90;;;;;;5014080;28;20237;-61
2021/10/12 01:05:54;;;;;;;10.23;5.60;;;10.00;99.90;;;;;;5014465;28;20210;-62
2021/10/12 01:08:20;;;;;;;15.30;6.30;;;10.00;99.90;;;;;;5014620;28;20396;-63
2021/10/12 01:10:47;;;;;;;18.23;6.57;;;10.00;1.00;;;;;;5014762;28;20562;-62
2021/10/12 01:13:14;;;;;;;11.37;6.27;;;10.00;1.00;;;;;;5014695;28;20223;-62
2021/10/12 01:15:41;;;;;;;14.20;6.90;;;10.00;1.00;;;;;;5014381;28;20211;-62
2021/10/12 01:18:12;;;;;;;13.67;6.47;;;10.00;1.00;;;;;;5014402;28;20258;-63
2021/10/12 01:20:41;;;;;;;12.47;6.47;;;10.00;1.00;;;;;;5014608;28;20266;-62
2021/10/12 01:23:10;;;;;;;12.43;6.77;;;10.00;1.00;;;;;;5014116;28;20211;-63
2021/10/12 01:25:36;;;;;;;13.13;7.33;;;10.00;1.00;;;;;;5014271;28;20207;-62
2021/10/12 01:28:04;;;;;;;13.27;6.90;;;10.00;1.00;;;;;;5014502;28;20575;-62
2021/10/12 01:30:30;;;;;;;17.97;7.03;;;10.00;1.00;;;;;;5014139;28;20581;-62
2021/10/12 01:32:57;;;;;;;12.93;6.77;;;10.00;1.00;;;;;;5014166;28;20207;-62
2021/10/12 01:35:24;;;;;;;12.97;7.70;;;10.10;1.00;;;;;;5013901;28;20211;-63
2021/10/12 01:37:51;;;;;;;17.97;7.40;;;10.00;1.00;;;;;;5014199;28;20612;-62
2021/10/12 01:40:19;;;;;;;15.90;7.80;;;10.00;1.00;;;;;;5013903;28;20227;-62
2021/10/12 01:42:45;;;;;;;18.70;7.63;;;10.00;1.00;;;;;;5013872;28;20207;-62
2021/10/12 01:45:13;;;;;;;14.33;7.60;;;10.10;1.00;;;;;;5013882;28;20207;-63
2021/10/12 01:47:40;;;;;;;16.40;8.00;;;10.10;1.00;;;;;;5013918;28;20211;-63
2021/10/12 01:50:09;;;;;;;16.23;8.57;;;10.10;1.00;;;;;;5013663;28;20859;-63
2021/10/12 01:52:36;;;;;;;19.53;8.50;;;10.10;1.00;;;;;;5013826;28;20215;-63
2021/10/12 01:55:04;;;;;;;18.33;9.27;;;10.10;1.00;;;;;;5013753;28;20258;-62
2021/10/12 01:57:32;;;;;;;19.30;9.40;;;10.10;1.00;;;;;;5013891;28;20269;-63
2021/10/12 01:59:59;;;;;;;19.73;9.87;;;10.10;1.00;;;;;;5013936;28;20230;-62
2021/10/12 02:02:26;;;;;;;19.50;10.00;;;10.10;1.00;;;;;;5013616;28;20207;-62
2021/10/12 02:04:52;;;;;;;20.30;12.07;;;10.10;1.00;;;;;;5013301;28;20687;-62
2021/10/12 02:07:19;;;;;;;21.47;11.50;;;10.10;1.00;;;;;;5013709;28;20266;-63
2021/10/12 02:09:45;;;;;;;20.73;12.37;;;10.10;1.00;;;;;;5013507;28;20234;-62
2021/10/12 02:12:12;;;;;;;20.50;13.13;;;10.10;8.20;;;;;;5013277;28;20682;-63
2021/10/12 02:14:40;;;;;;;20.20;12.40;;;10.00;14.80;;;;;;5012794;28;20267;-62
2021/10/12 02:17:07;;;;;;;26.07;14.90;;;10.00;48.20;;;;;;5013185;28;20210;-62
2021/10/12 02:19:34;;;;;;;18.73;13.63;;;10.00;36.90;;;;;;5012842;28;20282;-61
2021/10/12 02:22:00;;;;;;;22.53;14.80;;;9.90;51.70;;;;;;5013175;28;20214;-62
2021/10/12 02:24:27;;;;;;;23.07;14.97;;;10.00;65.40;;;;;;5013589;28;20230;-63
2021/10/12 02:26:54;;;;;;;25.23;14.87;;;10.00;71.40;;;;;;5012909;28;20558;-61
2021/10/12 02:29:20;;;;;;;25.33;15.57;;;10.00;76.00;;;;;;5012892;28;20715;-62
2021/10/12 02:31:48;;;;;;;29.87;16.50;;;10.00;89.70;;;;;;5012847;28;20207;-63
2021/10/12 02:34:15;;;;;;;31.07;16.80;;;10.00;93.00;;;;;;5012881;28;20265;-63
2021/10/12 02:36:41;;;;;;;27.90;15.50;;;10.10;95.50;;;;;;5012599;28;20210;-62
2021/10/12 02:39:08;;;;;;;28.10;16.40;;;10.10;96.20;;;;;;5012873;28;21627;-62
2021/10/12 02:41:35;;;;;;;33.77;16.27;;;10.00;95.50;;;;;;5012508;28;20231;-62
2021/10/12 02:44:01;;;;;;;27.50;15.87;;;10.00;95.50;;;;;;5012595;28;20264;-63
2021/10/12 02:46:28;;;;;;;30.63;16.80;;;10.00;98.30;;;;;;5012834;28;20210;-61
2021/10/12 02:48:56;;;;;;;32.43;17.37;;;10.00;99.90;;;;;;5012703;28;20612;-62
2021/10/12 02:51:23;;;;;;;30.03;17.30;;;10.00;97.00;;;;;;5012625;28;20253;-62
2021/10/12 02:53:49;;;;;;;26.00;17.50;;;10.00;95.90;;;;;;5012778;28;20205;-61
2021/10/12 02:56:16;;;;;;;33.43;18.47;;;10.10;99.40;;;;;;5012341;28;20301;-62
2021/10/12 02:58:43;;;;;;;32.83;18.70;;;10.10;95.80;;;;;;5012411;28;20217;-62
2021/10/12 03:01:09;;;;;;;37.00;20.27;;;10.10;89.30;;;;;;5012515;28;20288;-62
2021/10/12 03:03:36;;;;;;;35.57;19.83;;;10.00;90.10;;;;;;5012634;28;20213;-59
2021/10/12 03:06:04;;;;;;;34.20;19.23;;;10.00;97.60;;;;;;5011979;28;20261;-62
2021/10/12 03:08:30;;;;;;;33.33;19.93;;;10.00;99.90;;;;;;5012478;28;20218;-63
2021/10/12 03:10:57;;;;;;;30.67;18.63;;;10.00;99.90;;;;;;5012130;28;20223;-60
2021/10/12 03:13:24;;;;;;;38.60;20.00;;;10.00;99.90;;;;;;5012245;28;20236;-62
2021/10/12 03:15:50;;;;;;;37.47;20.47;;;10.00;99.90;;;;;;5011645;28;20217;-60
2021/10/12 03:18:17;;;;;;;37.37;19.83;;;10.00;99.90;;;;;;5012422;28;20215;-63
2021/10/12 03:20:44;;;;;;;39.33;21.30;;;10.00;99.90;;;;;;5012060;28;20237;-62
2021/10/12 03:23:12;;;;;;;36.47;21.53;;;10.00;99.90;;;;;;5012182;28;20211;-60
2021/10/12 03:25:39;;;;;;;42.80;21.83;;;9.90;99.90;;;;;;5011833;28;20210;-60
2021/10/12 03:28:06;;;;;;;38.67;20.40;;;9.90;99.90;;;;;;5011765;28;20273;-63
2021/10/12 03:30:33;;;;;;;34.37;21.17;;;9.90;99.90;;;;;;5012117;28;20232;-60
2021/10/12 03:32:59;;;;;;;38.60;20.60;;;9.90;99.90;;;;;;5011933;28;20687;-62
2021/10/12 03:35:30;;;;;;;42.10;21.30;;;9.90;99.90;;;;;;5011668;28;20206;-60
2021/10/12 03:37:57;;;;;;;40.83;21.87;;;9.90;99.90;;;;;;5012060;28;20238;-60
2021/10/12 03:40:25;;;;;;;44.27;22.20;;;9.80;99.90;;;;;;5011728;28;20231;-62
2021/10/12 03:42:52;;;;;;;41.27;21.77;;;9.80;99.90;;;;;;5011710;28;20265;-60
2021/10/12 03:45:19;;;;;;;40.67;22.50;;;9.80;99.90;;;;;;5011602;28;20210;-59
2021/10/12 03:47:46;;;;;;;40.00;21.83;;;9.80;99.90;;;;;;5012071;28;20628;-62
2021/10/12 03:50:12;;;;;;;43.43;22.10;;;9.80;99.90;;;;;;5011649;28;20241;-63
2021/10/12 03:52:39;;;;;;;42.37;22.13;;;9.80;99.90;;;;;;5011783;28;20237;-60
2021/10/12 03:55:07;;;;;;;48.83;21.07;;;9.80;99.90;;;;;;5011367;28;20253;-62
2021/10/12 03:57:35;;;;;;;39.37;20.27;;;9.80;99.90;;;;;;5012108;28;20213;-60
2021/10/12 04:00:02;;;;;;;39.87;19.20;;;9.80;99.90;;;;;;5011587;28;20744;-62
2021/10/12 04:02:29;;;;;;;33.30;17.93;;;9.80;99.90;;;;;;5011490;28;20718;-60
2021/10/12 04:04:55;;;;;;;36.77;17.30;;;9.80;99.90;;;;;;5011392;28;20214;-58
2021/10/12 04:07:22;;;;;;;34.37;16.17;;;9.80;99.90;;;;;;5011612;28;20637;-60
2021/10/12 04:09:48;;;;;;;35.17;15.57;;;9.80;99.90;;;;;;5011456;28;20233;-60
2021/10/12 04:12:15;;;;;;;25.70;14.33;;;9.80;99.90;;;;;;5011866;28;20222;-60
2021/10/12 04:14:43;;;;;;;24.57;12.93;;;9.80;99.90;;;;;;5011382;28;20219;-60
2021/10/12 04:17:10;;;;;;;28.43;13.10;;;9.80;99.90;;;;;;5011096;28;20211;-61
2021/10/12 04:19:36;;;;;;;23.03;12.53;;;9.80;99.90;;;;;;5030357;28;20289;-61
2021/10/12 04:22:03;;;;;;;30.63;12.97;;;9.80;99.90;;;;;;5031475;28;20280;-62
2021/10/12 04:24:30;;;;;;;25.67;12.27;;;9.80;99.90;;;;;;5031014;28;20643;-62
2021/10/12 04:26:57;;;;;;;21.00;12.13;;;9.70;99.90;;;;;;5031256;28;20256;-59
2021/10/12 04:29:24;;;;;;;25.43;11.77;;;9.70;99.90;;;;;;5039971;28;20221;-61
2021/10/12 04:31:52;;;;;;;29.40;12.43;;;9.70;99.90;;;;;;5030645;28;20198;-60
2021/10/12 04:34:18;;;;;;;22.37;11.90;;;9.70;99.90;;;;;;5030956;28;20253;-60
2021/10/12 04:36:45;;;;;;;22.53;12.60;;;9.70;99.90;;;;;;5030496;28;20214;-60
2021/10/12 04:39:12;;;;;;;27.90;14.73;;;9.70;99.90;;;;;;5032653;28;20300;-59
2021/10/12 04:41:38;;;;;;;30.30;15.87;;;9.70;99.90;;;;;;5053745;28;20299;-61
2021/10/12 04:44:09;;;;;;;36.30;17.00;;;9.70;99.90;;;;;;5054597;28;20212;-60
2021/10/12 04:46:36;;;;;;;37.07;17.93;;;9.70;99.90;;;;;;5054101;28;20271;-58
2021/10/12 04:49:04;;;;;;;41.07;18.43;;;9.70;99.90;;;;;;5054593;28;20243;-61
2021/10/12 04:51:30;;;;;;;39.43;19.13;;;9.70;99.90;;;;;;5053999;28;20202;-61
2021/10/12 04:53:57;;;;;;;41.20;20.33;;;9.70;99.90;;;;;;5054541;28;20651;-60
2021/10/12 04:56:24;;;;;;;45.13;20.83;;;9.70;99.90;;;;;;5053940;28;20670;-60
2021/10/12 04:58:51;;;;;;;42.23;21.53;;;9.80;99.90;;;;;;5054267;28;20235;-62
2021/10/12 05:01:17;;;;;;;41.60;21.63;;;9.80;99.90;;;;;;5054035;28;20709;-62
2021/10/12 05:03:44;;;;;;;44.53;21.73;;;9.80;99.90;;;;;;5053694;28;20208;-59
2021/10/12 05:06:12;;;;;;;45.93;21.63;;;9.70;99.90;;;;;;5053530;28;20252;-60
2021/10/12 05:08:38;;;;;;;46.50;23.57;;;9.70;99.90;;;;;;5054169;28;20206;-60
2021/10/12 05:11:05;;;;;;;56.07;25.73;;;9.70;99.90;;;;;;5053931;28;20225;-61
2021/10/12 05:13:32;;;;;;;43.90;25.10;;;9.80;99.90;;;;;;5054111;28;20217;-59
2021/10/12 05:16:03;;;;;;;49.77;25.70;;;9.70;99.90;;;;;;5053551;28;20208;-61
2021/10/12 05:18:32;;;;;;;51.97;27.23;;;9.70;99.90;;;;;;5034423;28;20206;-62
2021/10/12 05:20:59;;;;;;;54.83;25.87;;;9.70;99.90;;;;;;5033674;28;20233;-61
2021/10/12 05:23:27;;;;;;;57.67;28.03;;;9.70;99.90;;;;;;5033940;28;20244;-60
2021/10/12 05:25:54;;;;;;;51.30;27.33;;;9.60;99.90;;;;;;5033508;28;20213;-61
2021/10/12 05:28:21;;;;;;;54.40;29.20;;;9.70;99.90;;;;;;5033563;28;20699;-60
2021/10/12 05:30:48;;;;;;;52.63;27.90;;;9.70;99.90;;;;;;5033386;28;20279;-61
2021/10/12 05:33:15;;;;;;;54.43;30.20;;;9.60;99.90;;;;;;5033504;28;20217;-61
2021/10/12 05:35:42;;;;;;;54.90;29.87;;;9.60;99.90;;;;;;5033613;28;20290;-63
2021/10/12 05:38:09;;;;;;;51.40;28.10;;;9.60;99.90;;;;;;5033657;28;20671;-63
2021/10/12 05:40:37;;;;;;;58.20;29.63;;;9.60;99.90;;;;;;5032742;28;20227;-62
2021/10/12 05:43:04;;;;;;;60.97;30.43;;;9.60;99.90;;;;;;5033565;28;20216;-63
2021/10/12 05:45:30;;;;;;;52.60;27.90;;;9.60;99.90;;;;;;5032860;28;20238;-61
2021/10/12 05:47:58;;;;;;;60.10;29.87;;;9.60;99.90;;;;;;5033173;28;20243;-62
2021/10/12 05:50:25;;;;;;;50.37;28.77;;;9.60;99.90;;;;;;5032738;28;20229;-62
2021/10/12 05:52:59;;;;;;;53.73;29.87;;;9.50;99.90;;;;;;5033074;28;20611;-63
2021/10/12 05:55:27;;;;;;;57.30;29.23;;;9.50;99.90;;;;;;5032732;28;20241;-65
2021/10/12 05:58:07;;;;;;;63.67;29.17;;;9.60;99.90;;;;;;5033030;28;20733;-63
2021/10/12 06:00:34;;;;;;;53.67;28.27;;;9.60;99.90;;;;;;5033225;28;20232;-65
2021/10/12 06:03:01;;;;;;;46.30;26.37;;;9.60;99.90;;;;;;5033004;28;20226;-63
2021/10/12 06:05:27;;;;;;;50.20;25.90;;;9.60;99.90;;;;;;5032530;28;20256;-63
2021/10/12 06:07:54;;;;;;;45.83;26.70;;;9.60;99.90;;;;;;5033060;28;20210;-62
2021/10/12 06:10:21;;;;;;;51.37;26.47;;;9.60;99.90;;;;;;5032728;28;20230;-61
2021/10/12 06:12:48;;;;;;;45.70;26.67;;;9.60;99.90;;;;;;5032633;28;20236;-58
2021/10/12 06:15:16;;;;;;;44.43;25.97;;;9.60;99.90;;;;;;5032479;28;20202;-61
2021/10/12 06:17:42;;;;;;;41.70;26.33;;;9.60;99.90;;;;;;5032726;28;20213;-60
2021/10/12 06:20:10;;;;;;;46.37;26.30;;;9.60;99.90;;;;;;5032560;28;20233;-60
2021/10/12 06:22:37;;;;;;;44.50;25.73;;;9.60;99.90;;;;;;5032442;28;20628;-60
2021/10/12 06:25:04;;;;;;;41.60;25.27;;;9.60;99.90;;;;;;5041843;28;20213;-61
2021/10/12 06:27:30;;;;;;;41.23;25.57;;;9.60;99.90;;;;;;5028359;28;20248;-61
2021/10/12 06:29:57;;;;;;;40.30;23.53;;;9.60;99.90;;;;;;5034576;28;20225;-61
2021/10/12 06:32:25;;;;;;;37.80;23.40;;;9.60;99.90;;;;;;5033037;28;20209;-62
2021/10/12 06:34:52;;;;;;;31.40;23.30;;;9.60;99.90;;;;;;5031465;28;20221;-62
2021/10/12 06:37:18;;;;;;;39.90;22.83;;;9.60;99.90;;;;;;5032426;28;20205;-59
2021/10/12 06:39:45;;;;;;;38.17;23.00;;;9.60;99.90;;;;;;5035890;28;20241;-64
2021/10/12 06:42:11;;;;;;;44.30;23.37;;;9.60;99.90;;;;;;5036014;28;20230;-64
2021/10/12 06:44:38;;;;;;;37.80;22.87;;;9.60;99.90;;;;;;5038020;28;20210;-64
2021/10/12 06:47:05;;;;;;;35.80;23.27;;;9.60;99.90;;;;;;5031848;28;20260;-63
2021/10/12 06:49:33;;;;;;;37.77;22.47;;;9.70;99.90;;;;;;5031557;28;20232;-61
2021/10/12 06:51:59;;;;;;;39.13;22.47;;;9.70;99.90;;;;;;5032145;28;20607;-55
2021/10/12 06:54:27;;;;;;;34.50;23.70;;;9.70;99.90;;;;;;5031622;28;20859;-60
2021/10/12 06:56:57;;;;;;;44.73;23.60;;;9.70;99.90;;;;;;5031541;28;20248;-58
2021/10/12 06:59:24;;;;;;;34.97;23.47;;;9.60;99.90;;;;;;5031578;28;20241;-57
2021/10/12 07:01:51;;;;;;;33.33;21.93;;;9.70;99.90;;;;;;5030713;28;20267;-61
2021/10/12 07:04:18;;;;;;;41.03;23.17;;;9.70;99.90;;;;;;5031616;28;20214;-60
2021/10/12 07:06:46;;;;;;;36.63;23.57;;;9.70;99.90;;;;;;5031045;28;20209;-60
2021/10/12 07:09:14;;;;;;;40.77;24.97;;;9.70;99.90;;;;;;5031191;28;20295;-61
2021/10/12 07:11:41;;;;;;;36.07;22.90;;;9.70;99.90;;;;;;5031573;28;20663;-60
2021/10/12 07:14:08;;;;;;;39.10;23.03;;;9.70;99.90;;;;;;5031754;28;20205;-62
2021/10/12 07:16:35;;;;;;;36.23;22.17;;;9.70;99.90;;;;;;5031274;28;20206;-60
2021/10/12 07:19:01;;;;;;;36.53;21.87;;;9.70;99.90;;;;;;5031037;28;20209;-61
2021/10/12 07:21:28;;;;;;;33.57;21.50;;;9.80;99.90;;;;;;5031156;28;20595;-62
2021/10/12 07:23:56;;;;;;;34.40;20.27;;;9.80;99.90;;;;;;5031519;28;20286;-61
2021/10/12 07:26:23;;;;;;;33.70;20.23;;;9.80;99.90;;;;;;5031177;28;20213;-60
2021/10/12 07:28:50;;;;;;;29.77;18.83;;;9.90;99.90;;;;;;5030878;28;20264;-61
2021/10/12 07:31:17;;;;;;;31.90;18.80;;;9.80;99.90;;;;;;5031521;28;20220;-63
2021/10/12 07:33:44;;;;;;;29.40;19.17;;;9.80;99.90;;;;;;5031378;28;20217;-62
2021/10/12 07:36:10;;;;;;;25.67;18.40;;;9.80;99.90;;;;;;5031139;28;20211;-61
2021/10/12 07:38:37;;;;;;;27.67;16.50;;;9.90;99.90;;;;;;5030904;28;20267;-60
2021/10/12 07:41:05;;;;;;;27.00;18.23;;;9.90;99.90;;;;;;5030883;28;20784;-60
2021/10/12 07:43:31;;;;;;;23.07;17.57;;;10.00;99.90;;;;;;5031205;28;20295;-60
2021/10/12 07:45:58;;;;;;;27.20;18.10;;;10.10;99.90;;;;;;5030549;28;20284;-62
2021/10/12 07:48:25;;;;;;;26.53;18.73;;;10.10;99.90;;;;;;5030034;28;20229;-61
2021/10/12 07:50:52;;;;;;;27.60;18.03;;;10.10;99.90;;;;;;5030741;28;20295;-60
2021/10/12 07:53:19;;;;;;;26.43;18.67;;;10.10;99.90;;;;;;5031213;28;20210;-60
2021/10/12 07:55:48;;;;;;;29.20;18.93;;;10.10;87.40;;;;;;5028695;28;20229;-59
2021/10/12 07:58:16;;;;;;;30.17;19.27;;;10.10;80.20;;;;;;5030355;28;20228;-61
2021/10/12 08:00:44;;;;;;;28.07;20.33;;;10.10;83.50;;;;;;5022378;28;20230;-61
2021/10/12 08:03:11;;;;;;;29.40;22.33;;;10.10;86.90;;;;;;5018220;28;20245;-56
2021/10/12 08:05:39;;;;;;;34.07;21.50;;;10.10;98.50;;;;;;5010238;28;20209;-58
2021/10/12 08:08:06;;;;;;;33.93;22.87;;;10.20;99.90;;;;;;5016208;28;20240;-58
2021/10/12 08:10:34;;;;;;;31.50;21.33;;;10.20;99.90;;;;;;5030242;28;20237;-55
2021/10/12 08:13:05;;;;;;;33.07;22.43;;;10.30;82.20;;;;;;5031092;28;20289;-63
2021/10/12 08:15:33;;;;;;;35.43;22.73;;;10.30;79.80;;;;;;5033769;28;20232;-62
2021/10/12 08:18:01;;;;;;;30.53;22.83;;;10.30;66.70;;;;;;5033819;28;20311;-62
2021/10/12 08:20:27;;;;;;;31.90;23.00;;;10.30;52.90;;;;;;5034102;28;20620;-62
2021/10/12 08:22:54;;;;;;;32.57;23.40;;;10.30;44.00;;;;;;5034117;28;20820;-62
2021/10/12 08:25:21;;;;;;;32.13;21.70;;;10.30;41.70;;;;;;5033599;28;20237;-60
2021/10/12 08:27:48;;;;;;;32.07;22.77;;;10.40;39.60;;;;;;5033718;28;20219;-61
2021/10/12 08:30:15;;;;;;;31.23;22.87;;;10.30;1.00;;;;;;5033588;28;20222;-60
2021/10/12 08:32:43;;;;;;;31.83;22.90;;;10.30;1.00;;;;;;5034066;28;20202;-61
2021/10/12 08:35:11;;;;;;;34.70;23.77;;;10.30;1.00;;;;;;5033221;28;20210;-61
2021/10/12 08:37:38;;;;;;;33.03;23.83;;;10.30;1.00;;;;;;5033629;28;20272;-61
2021/10/12 08:40:12;;;;;;;36.80;25.57;;;10.30;1.00;;;;;;5033615;28;20291;-60
2021/10/12 08:42:44;;;;;;;36.53;24.53;;;10.30;14.90;;;;;;5032759;28;20257;-63
2021/10/12 08:45:11;;;;;;;35.17;25.90;;;10.30;25.70;;;;;;5043128;28;20614;-64
2021/10/12 08:47:38;;;;;;;33.17;24.63;;;10.40;25.50;;;;;;5053500;28;20210;-64
2021/10/12 08:50:09;;;;;;;37.77;25.83;;;10.30;27.50;;;;;;5053788;28;20230;-61
2021/10/12 08:52:36;;;;;;;38.90;24.93;;;10.40;53.30;;;;;;5053670;28;20201;-60
2021/10/12 08:55:02;;;;;;;37.57;25.97;;;10.40;80.00;;;;;;5052957;28;20209;-60
2021/10/12 08:57:30;;;;;;;38.03;26.60;;;10.50;90.10;;;;;;5037479;28;20350;-61
2021/10/12 08:59:58;;;;;;;40.93;25.47;;;10.50;82.20;;;;;;5033730;28;20241;-57
2021/10/12 09:02:26;;;;;;;38.50;26.67;;;10.50;85.10;;;;;;5033765;28;20222;-61
2021/10/12 09:04:53;;;;;;;37.97;26.73;;;10.50;97.60;;;;;;5032947;28;20236;-60
2021/10/12 09:07:23;;;;;;;37.87;26.17;;;10.50;99.90;;;;;;5033068;28;20206;-60
2021/10/12 09:09:51;;;;;;;39.23;26.90;;;10.50;99.90;;;;;;5032747;28;20806;-60
2021/10/12 09:12:19;;;;;;;36.40;24.77;;;10.60;99.90;;;;;;5033403;28;20209;-60
2021/10/12 09:14:53;;;;;;;36.50;24.93;;;10.60;95.50;;;;;;5032657;28;20213;-60
2021/10/12 09:17:29;;;;;;;33.20;25.00;;;10.60;70.60;;;;;;5032966;28;20221;-63
2021/10/12 09:19:57;;;;;;;35.73;24.40;;;10.60;48.10;;;;;;5032722;28;20227;-62
2021/10/12 09:22:25;;;;;;;34.70;24.60;;;10.50;29.00;;;;;;5032809;28;20222;-62
2021/10/12 09:24:51;;;;;;;36.93;25.20;;;10.60;62.60;;;;;;5028567;28;20199;-62
2021/10/12 09:27:20;;;;;;;36.80;25.40;;;10.60;62.40;;;;;;5032439;28;20209;-62
2021/10/12 09:29:48;;;;;;;37.47;25.90;;;10.60;86.90;;;;;;5032555;28;20280;-62
2021/10/12 09:32:15;;;;;;;40.47;26.70;;;10.60;99.90;;;;;;5032478;28;20294;-62
2021/10/12 09:34:44;;;;;;;34.40;26.73;;;10.80;99.90;;;;;;5030794;28;20206;-62
2021/10/12 09:37:16;;;;;;;38.27;25.47;;;10.90;99.90;;;;;;5032321;28;20310;-63
2021/10/12 09:39:47;;;;;;;32.57;24.33;;;11.00;99.90;;;;;;5032535;28;20238;-62
2021/10/12 09:42:15;;;;;;;36.63;25.57;;;11.00;99.90;;;;;;5032423;28;20799;-62
2021/10/12 09:44:51;;;;;;;35.77;24.47;;;11.00;97.50;;;;;;5032420;28;20218;-63
2021/10/12 09:47:17;;;;;;;35.23;24.67;;;11.00;81.80;;;;;;5032341;28;20193;-63
2021/10/12 09:49:46;;;;;;;36.67;24.67;;;11.00;19.50;;;;;;5032010;28;20248;-60
2021/10/12 09:52:15;;;;;;;36.73;25.70;;;11.00;42.60;;;;;;5035106;28;20214;-62
2021/10/12 09:54:48;;;;;;;40.97;26.67;;;11.10;45.80;;;;;;5034041;28;20285;-60
2021/10/12 09:57:16;;;;;;;39.60;26.80;;;11.20;58.70;;;;;;5032439;28;20256;-61
2021/10/12 09:59:43;;;;;;;39.57;26.77;;;11.30;45.20;;;;;;5033781;28;20233;-65
2021/10/12 10:02:13;;;;;;;37.30;25.37;;;11.30;36.30;;;;;;5032136;28;20214;-66
2021/10/12 10:04:40;;;;;;;34.53;24.63;;;11.40;1.00;;;;;;5032275;28;20297;-64
2021/10/12 10:07:10;;;;;;;37.73;25.57;;;11.30;1.00;;;;;;5030641;28;20581;-67
2021/10/12 10:09:40;;;;;;;34.97;25.27;;;11.30;1.00;;;;;;5047403;28;20229;-60
2021/10/12 10:12:09;;;;;;;35.77;25.83;;;11.30;1.00;;;;;;5052201;28;20771;-64
2021/10/12 10:14:37;;;;;;;33.97;25.83;;;11.40;1.00;;;;;;5051567;28;20271;-59
2021/10/12 10:17:04;;;;;;;38.63;24.83;;;11.50;1.00;;;;;;5033158;28;20310;-60
2021/10/12 10:19:35;;;;;;;35.43;25.53;;;11.50;1.00;;;;;;5031276;28;20712;-64
2021/10/12 10:22:05;;;;;;;32.67;24.50;;;11.60;1.00;;;;;;5032348;28;20214;-60
2021/10/12 10:24:44;;;;;;;34.17;23.53;;;11.60;1.00;;;;;;5040152;28;20595;-60
2021/10/12 10:27:31;;;;;;;34.13;24.57;;;11.70;1.00;;;;;;5051337;28;20209;-60
2021/10/12 10:30:27;;;;;;;32.90;24.27;;;11.70;1.00;;;;;;5051825;28;20257;-60
2021/10/12 10:32:55;;;;;;;31.30;23.07;;;11.70;1.00;;;;;;5033814;28;20206;-60
2021/10/12 10:35:38;;;;;;;31.50;23.50;;;11.80;1.00;;;;;;5031267;28;20256;-61
2021/10/12 10:38:28;;;;;;;29.30;22.87;;;11.80;1.00;;;;;;5029758;28;20707;-58
2021/10/12 10:41:22;;;;;;;29.73;21.90;;;11.90;1.00;;;;;;5029097;28;20238;-63
2021/10/12 10:43:56;;;;;;;27.97;21.60;;;11.90;1.00;;;;;;5030858;28;20320;-60
2021/10/12 10:46:53;;;;;;;29.63;22.40;;;12.00;1.00;;;;;;5031397;28;20581;-64
2021/10/12 10:49:23;;;;;;;23.00;19.20;;;12.10;1.00;;;;;;5025682;28;20231;-64
2021/10/12 10:51:56;;;;;;;22.60;19.17;;;12.00;99.90;;;;;;5032929;28;20210;-63
2021/10/12 10:54:59;;;;;;;22.40;18.80;;;11.90;99.90;;;;;;5031452;28;20197;-63
2021/10/12 10:57:26;;;;;;;22.77;17.90;;;11.90;99.90;;;;;;5028851;28;20316;-60
2021/10/12 11:00:23;;;;;;;20.80;16.70;;;11.90;99.90;;;;;;5050305;28;20231;-59
2021/10/12 11:02:50;;;;;;;18.97;15.47;;;11.90;99.90;;;;;;5031412;28;20233;-63
2021/10/12 11:05:34;;;;;;;17.57;15.67;;;11.90;99.90;;;;;;5030579;28;20203;-64
2021/10/12 11:08:08;;;;;;;19.00;15.50;;;11.90;99.90;;;;;;5034927;28;20206;-60
2021/10/12 11:10:34;;;;;;;19.73;15.33;;;12.10;99.90;;;;;;5040512;28;20222;-61
2021/10/12 11:13:01;;;;;;;16.40;14.47;;;12.10;99.90;;;;;;5031162;28;20628;-61
2021/10/12 11:15:29;;;;;;;16.07;14.20;;;12.20;99.90;;;;;;5030669;28;20212;-60
2021/10/12 11:18:06;;;;;;;17.00;14.10;;;12.20;99.90;;;;;;5029720;28;20349;-59
2021/10/12 11:20:44;;;;;;;16.27;14.10;;;12.20;54.00;;;;;;5027320;28;20279;-66
2021/10/12 11:23:12;;;;;;;17.37;15.53;;;12.10;99.90;;;;;;5030394;28;20286;-65
2021/10/12 11:25:39;;;;;;;20.60;16.07;;;12.00;1.00;;;;;;5030721;28;20558;-65
2021/10/12 11:28:10;;;;;;;20.30;16.43;;;12.00;99.90;;;;;;5030712;28;20217;-65
2021/10/12 11:30:40;;;;;;;19.07;16.63;;;12.10;99.90;;;;;;5029926;28;20243;-61
2021/10/12 11:33:07;;;;;;;23.33;17.13;;;12.10;99.90;;;;;;5028123;28;20208;-66
2021/10/12 11:35:36;;;;;;;23.63;18.00;;;12.00;99.90;;;;;;5029887;28;20668;-65
2021/10/12 11:38:04;;;;;;;25.13;19.37;;;12.00;99.90;;;;;;5030545;28;20229;-65
2021/10/12 11:40:32;;;;;;;20.83;17.37;;;12.00;90.80;;;;;;5030670;28;20635;-65
2021/10/12 11:43:00;;;;;;;25.70;19.07;;;12.10;99.90;;;;;;5030570;28;20238;-64
2021/10/12 11:45:27;;;;;;;23.13;19.53;;;12.10;1.00;;;;;;5030369;28;20203;-63
2021/10/12 11:47:56;;;;;;;24.20;19.87;;;12.00;1.00;;;;;;5031023;28;20259;-61
2021/10/12 11:50:23;;;;;;;26.83;20.93;;;11.90;1.00;;;;;;5034423;28;20227;-62
2021/10/12 11:52:51;;;;;;;26.73;20.03;;;11.90;1.00;;;;;;5037601;28;20260;-62
2021/10/12 11:55:22;;;;;;;29.23;22.57;;;11.80;1.00;;;;;;5033654;28;20213;-63
2021/10/12 11:57:49;;;;;;;30.03;24.03;;;11.70;99.90;;;;;;5034578;28;20674;-63
2021/10/12 12:00:18;;;;;;;32.10;25.57;;;11.60;1.00;;;;;;5034444;28;20290;-62
2021/10/12 12:02:45;;;;;;;36.93;27.30;;;11.80;1.00;;;;;;5033980;28;20653;-61
2021/10/12 12:05:13;;;;;;;35.43;26.83;;;11.90;1.00;;;;;;5034049;28;20222;-62
2021/10/12 12:07:43;;;;;;;31.60;25.27;;;12.10;1.00;;;;;;5034321;28;20216;-63
2021/10/12 12:10:10;;;;;;;28.77;24.03;;;12.20;1.00;;;;;;5033010;28;20282;-63
2021/10/12 12:12:38;;;;;;;31.37;23.77;;;12.30;1.00;;;;;;5047124;28;20223;-61
2021/10/12 12:15:07;;;;;;;28.07;22.57;;;12.40;1.00;;;;;;5041244;28;20683;-55
2021/10/12 12:17:36;;;;;;;27.47;21.93;;;12.50;1.00;;;;;;5034044;28;20216;-59
2021/10/12 12:20:08;;;;;;;28.17;19.80;;;12.50;99.90;;;;;;5034157;28;20232;-59
2021/10/12 12:22:41;;;;;;;22.37;18.27;;;12.60;99.90;;;;;;5033858;28;20214;-59
2021/10/12 12:25:11;;;;;;;23.33;17.60;;;12.70;99.90;;;;;;5033745;28;20695;-61
2021/10/12 12:27:54;;;;;;;18.10;15.80;;;12.70;1.00;;;;;;5048208;28;20209;-63
2021/10/12 12:30:32;;;;;;;17.40;14.57;;;12.60;1.00;;;;;;5031951;28;20309;-62
2021/10/12 12:32:59;;;;;;;20.53;15.07;;;12.60;1.00;;;;;;5034610;28;20815;-62
2021/10/12 12:35:26;;;;;;;21.33;14.50;;;12.40;1.00;;;;;;5033917;28;20205;-60
2021/10/12 12:37:58;;;;;;;16.33;13.63;;;12.10;1.00;;;;;;5033572;28;20206;-61
2021/10/12 12:40:27;;;;;;;15.40;12.40;;;12.10;99.90;;;;;;5034216;28;20324;-64